createdAt,value
2023-08-14T00:01:25.845Z,101044.47
2023-08-14T00:03:53.371Z,101014.84
2023-08-14T00:06:26.584Z,101050.91
2023-08-14T00:08:53.879Z,101048.53
2023-08-14T00:11:30.296Z,101052.97
2023-08-14T00:13:57.946Z,101052.97
2023-08-14T00:16:28.598Z,101048.34
2023-08-14T00:19:08.267Z,101047.59
2023-08-14T00:21:44.105Z,101054.41
2023-08-14T00:24:11.448Z,101049.78
2023-08-14T00:26:39.935Z,101056.16
2023-08-14T00:29:06.927Z,101045.94
2023-08-14T00:31:34.082Z,101047.56
2023-08-14T00:34:01.702Z,101036.75
2023-08-14T00:36:28.838Z,101038.44
2023-08-14T00:38:58.972Z,101036.94
2023-08-14T00:41:26.308Z,101035.28
2023-08-14T00:43:57.185Z,101037.34
2023-08-14T00:46:25.677Z,101039.63
2023-08-14T00:48:53.587Z,101031.66
2023-08-14T00:51:22.246Z,101041.13
2023-08-14T00:53:50.453Z,101040.31
2023-08-14T00:56:19.361Z,101042.16
2023-08-14T00:58:47.011Z,101034.91
2023-08-14T01:01:16.019Z,101042.63
2023-08-14T01:03:43.554Z,101047.56
2023-08-14T01:06:10.773Z,101032.78
2023-08-14T01:08:38.164Z,101049.34
2023-08-14T01:11:13.804Z,101051.84
2023-08-14T01:13:47.778Z,101042.84
2023-08-14T01:16:20.958Z,101039.41
2023-08-14T01:18:49.242Z,101054.09
2023-08-14T01:21:32.111Z,101049.75
2023-08-14T01:24:07.885Z,101050.13
2023-08-14T01:26:37.261Z,101039.06
2023-08-14T01:29:05.111Z,101040.31
2023-08-14T01:31:32.269Z,101025.34
2023-08-14T01:33:59.556Z,101032.22
2023-08-14T01:36:31.862Z,101039.75
2023-08-14T01:39:07.597Z,101034.47
2023-08-14T01:41:43.185Z,101044.94
2023-08-14T01:44:15.248Z,101027.34
2023-08-14T01:46:44.591Z,101038.25
2023-08-14T01:49:15.179Z,101027.53
2023-08-14T01:51:42.888Z,101037.13
2023-08-14T01:54:10.898Z,101036.94
2023-08-14T01:56:39.279Z,101034.41
2023-08-14T01:59:06.679Z,101031.63
2023-08-14T02:01:33.744Z,101034.63
2023-08-14T02:04:01.075Z,101040.66
2023-08-14T02:06:28.097Z,101043.34
2023-08-14T02:08:55.459Z,101048.94
2023-08-14T02:11:22.372Z,101040.19
2023-08-14T02:13:51.084Z,101037.69
2023-08-14T02:16:20.310Z,101049.31
2023-08-14T02:18:47.618Z,101042.88
2023-08-14T02:21:14.628Z,101049.94
2023-08-14T02:23:42.080Z,101046.41
2023-08-14T02:26:09.626Z,101050.81
2023-08-14T02:28:36.931Z,101048.75
2023-08-14T02:31:06.219Z,101062.22
2023-08-14T02:33:33.813Z,101051.44
2023-08-14T02:36:01.009Z,101055.16
2023-08-14T02:38:28.445Z,101057.13
2023-08-14T02:40:55.413Z,101062.97
2023-08-14T02:43:22.740Z,101050.53
2023-08-14T02:45:49.800Z,101053.88
2023-08-14T02:48:18.466Z,101048.81
2023-08-14T02:50:45.476Z,101051.53
2023-08-14T02:53:12.997Z,101060.19
2023-08-14T02:55:39.902Z,101056.19
2023-08-14T02:58:07.272Z,101055.16
2023-08-14T03:00:34.632Z,101055.16
2023-08-14T03:03:03.966Z,101051.16
2023-08-14T03:05:32.452Z,101047.63
2023-08-14T03:07:59.732Z,101053.22
2023-08-14T03:10:26.839Z,101051.34
2023-08-14T03:12:54.227Z,101057.28
2023-08-14T03:15:21.200Z,101060.53
2023-08-14T03:17:48.864Z,101051.34
2023-08-14T03:20:16.635Z,101042.03
2023-08-14T03:22:45.534Z,101060.78
2023-08-14T03:25:12.297Z,101062.38
2023-08-14T03:27:39.562Z,101057.16
2023-08-14T03:30:08.003Z,101061.44
2023-08-14T03:32:35.341Z,101050.53
2023-08-14T03:35:02.339Z,101065.97
2023-08-14T03:37:29.503Z,101068.50
2023-08-14T03:40:00.600Z,101066.91
2023-08-14T03:42:31.057Z,101035.66
2023-08-14T03:44:58.032Z,101067.28
2023-08-14T03:47:25.283Z,101070.47
2023-08-14T03:49:52.382Z,101060.41
2023-08-14T03:52:19.890Z,101070.00
2023-08-14T03:54:47.170Z,101064.66
2023-08-14T03:57:15.740Z,101076.38
2023-08-14T03:59:42.767Z,101079.19
2023-08-14T04:02:10.208Z,101073.41
2023-08-14T04:04:37.207Z,101072.13
2023-08-14T04:07:04.470Z,101089.53
2023-08-14T04:09:31.724Z,101085.44
2023-08-14T04:11:59.669Z,101081.06
2023-08-14T04:14:28.554Z,101089.38
2023-08-14T04:16:56.171Z,101080.94
2023-08-14T04:19:23.494Z,101082.03
2023-08-14T04:21:50.752Z,101102.53
2023-08-14T04:24:17.929Z,101092.31
2023-08-14T04:26:45.383Z,101097.31
2023-08-14T04:29:12.407Z,101081.13
2023-08-14T04:31:41.832Z,101097.78
2023-08-14T04:34:10.470Z,101114.16
2023-08-14T04:36:38.152Z,101104.16
2023-08-14T04:39:05.708Z,101104.63
2023-08-14T04:41:32.894Z,101102.16
2023-08-14T04:44:00.404Z,101109.84
2023-08-14T04:46:38.286Z,101086.50
2023-08-14T04:49:13.672Z,101106.53
2023-08-14T04:51:40.715Z,101114.78
2023-08-14T04:54:07.838Z,101110.97
2023-08-14T04:56:35.486Z,101112.44
2023-08-14T04:59:02.557Z,101103.34
2023-08-14T05:01:29.843Z,101100.78
2023-08-14T05:03:57.148Z,101100.28
2023-08-14T05:06:26.007Z,101095.78
2023-08-14T05:08:52.959Z,101088.25
2023-08-14T05:11:20.362Z,101088.84
2023-08-14T05:13:47.703Z,101084.97
2023-08-14T05:16:15.036Z,101086.66
2023-08-14T05:18:42.138Z,101079.19
2023-08-14T05:21:09.436Z,101082.34
2023-08-14T05:23:38.174Z,101083.78
2023-08-14T05:26:05.529Z,101075.50
2023-08-14T05:28:33.313Z,101077.63
2023-08-14T05:31:00.903Z,101073.09
2023-08-14T05:33:28.012Z,101080.75
2023-08-14T05:35:55.443Z,101071.44
2023-08-14T05:38:22.396Z,101077.44
2023-08-14T05:40:51.096Z,101072.91
2023-08-14T05:43:18.635Z,101097.09
2023-08-14T05:45:47.116Z,101104.88
2023-08-14T05:48:15.168Z,101104.72
2023-08-14T05:50:42.973Z,101092.66
2023-08-14T05:53:14.087Z,101097.28
2023-08-14T05:55:53.555Z,101103.25
2023-08-14T05:58:20.655Z,101115.97
2023-08-14T06:00:48.224Z,101108.22
2023-08-14T06:03:25.620Z,101104.53
2023-08-14T06:05:56.638Z,101110.50
2023-08-14T06:08:23.751Z,101106.72
2023-08-14T06:10:53.864Z,101107.47
2023-08-14T06:13:21.006Z,101108.78
2023-08-14T06:15:53.240Z,101113.41
2023-08-14T06:18:20.385Z,101110.03
2023-08-14T06:20:47.887Z,101107.97
2023-08-14T06:23:14.826Z,101120.06
2023-08-14T06:25:42.172Z,101117.13
2023-08-14T06:28:13.270Z,101110.03
2023-08-14T06:30:40.660Z,101105.69
2023-08-14T06:33:07.686Z,101114.25
2023-08-14T06:35:34.973Z,101114.75
2023-08-14T06:38:05.116Z,101113.31
2023-08-14T06:40:32.756Z,101112.69
2023-08-14T06:43:00.011Z,101115.91
2023-08-14T06:45:31.958Z,101117.69
2023-08-14T06:47:59.122Z,101117.84
2023-08-14T06:50:26.822Z,101120.75
2023-08-14T06:52:54.151Z,101117.84
2023-08-14T06:55:22.083Z,101121.88
2023-08-14T06:57:51.161Z,101123.03
2023-08-14T07:00:18.993Z,101126.75
2023-08-14T07:02:48.620Z,101129.59
2023-08-14T07:05:17.901Z,101133.38
2023-08-14T07:07:44.982Z,101112.59
2023-08-14T07:10:12.537Z,101132.59
2023-08-14T07:12:45.154Z,101132.88
2023-08-14T07:15:13.832Z,101102.00
2023-08-14T07:17:44.918Z,101114.59
2023-08-14T07:20:15.695Z,101127.63
2023-08-14T07:22:48.474Z,101136.41
2023-08-14T07:25:15.893Z,101130.28
2023-08-14T07:27:42.892Z,101133.75
2023-08-14T07:30:11.113Z,101120.41
2023-08-14T07:32:38.194Z,101134.59
2023-08-14T07:35:06.618Z,101126.06
2023-08-14T07:37:34.966Z,101130.94
2023-08-14T07:40:02.371Z,101133.81
2023-08-14T07:42:29.458Z,101138.97
2023-08-14T07:44:56.860Z,101139.88
2023-08-14T07:47:23.945Z,101133.56
2023-08-14T07:49:51.195Z,101142.31
2023-08-14T07:52:18.548Z,101136.72
2023-08-14T07:54:47.550Z,101141.38
2023-08-14T07:57:14.631Z,101132.91
2023-08-14T07:59:42.043Z,101127.25
2023-08-14T08:02:09.083Z,101131.97
2023-08-14T08:04:40.834Z,101139.97
2023-08-14T08:07:08.402Z,101139.88
2023-08-14T08:09:35.809Z,101135.13
2023-08-14T08:12:04.817Z,101135.66
2023-08-14T08:14:33.097Z,101138.81
2023-08-14T08:17:00.506Z,101116.06
2023-08-14T08:19:28.166Z,101137.56
2023-08-14T08:21:55.565Z,101141.59
2023-08-14T08:24:22.848Z,101126.31
2023-08-14T08:26:49.985Z,101123.25
2023-08-14T08:29:18.675Z,101126.91
2023-08-14T08:31:45.786Z,101126.56
2023-08-14T08:34:13.313Z,101130.16
2023-08-14T08:36:40.199Z,101129.59
2023-08-14T08:39:11.893Z,101130.78
2023-08-14T08:41:44.804Z,101130.94
2023-08-14T08:44:16.812Z,101127.75
2023-08-14T08:46:51.918Z,101124.41
2023-08-14T08:49:20.871Z,101129.81
2023-08-14T08:51:49.796Z,101128.75
2023-08-14T08:54:17.914Z,101125.59
2023-08-14T08:56:46.951Z,101127.13
2023-08-14T08:59:17.703Z,101129.91
2023-08-14T09:01:48.134Z,101091.09
2023-08-14T09:04:16.067Z,101124.75
2023-08-14T09:06:43.534Z,101119.03
2023-08-14T09:09:13.205Z,101117.16
2023-08-14T09:11:42.452Z,101115.25
2023-08-14T09:14:10.753Z,101097.31
2023-08-14T09:16:41.500Z,101119.47
2023-08-14T09:19:10.428Z,101112.38
2023-08-14T09:21:38.514Z,101118.16
2023-08-14T09:24:10.858Z,101115.72
2023-08-14T09:26:37.938Z,101101.13
2023-08-14T09:29:13.009Z,101101.97
2023-08-14T09:31:43.639Z,101095.94
2023-08-14T09:34:18.083Z,101086.03
2023-08-14T09:36:45.302Z,101086.59
2023-08-14T09:39:13.502Z,101087.97
2023-08-14T09:41:40.505Z,101095.66
2023-08-14T09:44:07.897Z,101089.06
2023-08-14T09:46:35.105Z,101086.88
2023-08-14T09:49:02.775Z,101087.63
2023-08-14T09:51:33.597Z,101044.31
2023-08-14T09:54:01.072Z,101087.34
2023-08-14T09:56:28.222Z,101076.63
2023-08-14T09:58:55.942Z,101069.78
2023-08-14T10:01:24.064Z,101079.47
2023-08-14T10:03:54.394Z,101071.47
2023-08-14T10:06:24.696Z,101073.16
2023-08-14T10:08:56.374Z,101053.59
2023-08-14T10:11:27.330Z,101077.84
2023-08-14T10:14:01.530Z,101076.19
2023-08-14T10:16:34.619Z,101061.03
2023-08-14T10:19:04.413Z,101053.88
2023-08-14T10:21:34.325Z,101048.34
2023-08-14T10:24:04.496Z,101046.13
2023-08-14T10:26:33.094Z,101057.72
2023-08-14T10:29:00.911Z,101046.41
2023-08-14T10:31:29.097Z,101050.81
2023-08-14T10:33:57.619Z,101044.75
2023-08-14T10:36:28.212Z,101042.00
2023-08-14T10:39:03.176Z,101040.88
2023-08-14T10:41:38.000Z,101035.63
2023-08-14T10:44:06.245Z,101039.22
2023-08-14T10:46:37.634Z,101034.56
2023-08-14T10:49:05.365Z,101038.13
2023-08-14T10:51:34.327Z,101034.25
2023-08-14T10:54:19.444Z,101026.78
2023-08-14T10:56:52.833Z,101027.09
2023-08-14T10:59:23.780Z,101031.50
2023-08-14T11:01:53.181Z,101034.50
2023-08-14T11:04:20.712Z,101022.38
2023-08-14T11:07:03.980Z,101017.72
2023-08-14T11:09:32.909Z,101022.66
2023-08-14T11:12:06.668Z,101021.00
2023-08-14T11:14:39.186Z,101014.03
2023-08-14T11:17:06.495Z,101015.06
2023-08-14T11:19:37.571Z,101014.81
2023-08-14T11:22:05.206Z,101008.00
2023-08-14T11:24:35.535Z,100997.28
2023-08-14T11:27:04.329Z,101007.47
2023-08-14T11:29:33.092Z,101002.78
2023-08-14T11:32:01.699Z,100999.69
2023-08-14T11:34:33.621Z,100985.09
2023-08-14T11:39:32.971Z,100989.47
2023-08-14T11:41:59.946Z,100988.34
2023-08-14T11:44:28.966Z,100972.88
2023-08-14T11:46:57.577Z,100977.00
2023-08-14T11:49:25.903Z,100981.97
2023-08-14T11:51:53.753Z,100979.53
2023-08-14T11:54:22.128Z,100983.78
2023-08-14T11:56:49.277Z,100973.59
2023-08-14T11:59:18.037Z,100970.03
2023-08-14T12:01:47.121Z,100969.19
2023-08-14T12:04:14.535Z,100967.81
2023-08-14T12:06:41.707Z,100973.91
2023-08-14T12:09:11.043Z,100957.06
2023-08-14T12:11:40.003Z,100960.97
2023-08-14T12:14:10.301Z,100968.16
2023-08-14T12:16:41.050Z,100959.63
2023-08-14T12:19:12.593Z,100957.44
2023-08-14T12:21:39.995Z,100956.84
2023-08-14T12:24:07.726Z,100946.88
2023-08-14T12:26:41.693Z,100943.84
2023-08-14T12:29:09.410Z,100940.00
2023-08-14T12:31:36.764Z,100941.44
2023-08-14T12:34:07.271Z,100941.13
2023-08-14T12:36:36.389Z,100950.16
2023-08-14T12:39:04.183Z,100942.75
2023-08-14T12:41:31.577Z,100942.50
2023-08-14T12:43:59.001Z,100941.44
2023-08-14T12:46:26.832Z,100926.84
2023-08-14T12:48:55.423Z,100933.97
2023-08-14T12:51:22.735Z,100937.50
2023-08-14T12:53:51.753Z,100933.38
2023-08-14T12:56:19.230Z,100935.34
2023-08-14T12:58:49.963Z,100932.09
2023-08-14T13:01:17.461Z,100943.09
2023-08-14T13:03:44.940Z,100931.53
2023-08-14T13:06:12.075Z,100929.91
2023-08-14T13:08:41.726Z,100924.66
2023-08-14T13:11:10.081Z,100924.63
2023-08-14T13:13:37.677Z,100925.50
2023-08-14T13:16:05.001Z,100926.56
2023-08-14T13:18:32.466Z,100915.00
2023-08-14T13:20:59.750Z,100921.06
2023-08-14T13:23:27.242Z,100913.63
2023-08-14T13:25:54.371Z,100910.09
2023-08-14T13:28:23.014Z,100916.69
2023-08-14T13:30:52.852Z,100913.63
2023-08-14T13:33:20.176Z,100909.78
2023-08-14T13:35:47.666Z,100907.84
2023-08-14T13:38:15.025Z,100908.91
2023-08-14T13:40:43.805Z,100904.25
2023-08-14T13:43:11.075Z,100897.13
2023-08-14T13:45:39.699Z,100897.13
2023-08-14T13:48:10.276Z,100889.38
2023-08-14T13:50:43.048Z,100896.00
2023-08-14T13:53:11.073Z,100889.09
2023-08-14T13:55:44.776Z,100886.88
2023-08-14T13:58:14.268Z,100882.22
2023-08-14T14:00:43.117Z,100884.47
2023-08-14T14:03:10.773Z,100880.91
2023-08-14T14:05:39.575Z,100880.06
2023-08-14T14:08:07.222Z,100861.09
2023-08-14T14:10:39.602Z,100884.50
2023-08-14T14:13:07.152Z,100876.81
2023-08-14T14:15:34.195Z,100870.16
2023-08-14T14:18:04.013Z,100892.75
2023-08-14T14:20:31.062Z,100880.38
2023-08-14T14:22:58.348Z,100883.66
2023-08-14T14:25:25.353Z,100886.97
2023-08-14T14:27:52.822Z,100869.31
2023-08-14T14:30:19.871Z,100876.75
2023-08-14T14:32:47.314Z,100878.16
2023-08-14T14:35:15.714Z,100870.72
2023-08-14T14:37:43.137Z,100878.16
2023-08-14T14:40:10.950Z,100873.22
2023-08-14T14:42:38.371Z,100867.97
2023-08-14T14:45:06.518Z,100871.53
2023-08-14T14:47:35.001Z,100866.88
2023-08-14T14:50:04.832Z,100853.94
2023-08-14T14:52:40.933Z,100872.63
2023-08-14T14:55:11.224Z,100867.13
2023-08-14T14:57:41.364Z,100861.09
2023-08-14T15:00:12.008Z,100841.25
2023-08-14T15:02:39.432Z,100863.31
2023-08-14T15:05:08.747Z,100862.47
2023-08-14T15:07:48.904Z,100867.44
2023-08-14T15:10:18.253Z,100867.41
2023-08-14T15:12:51.534Z,100827.00
2023-08-14T15:15:20.936Z,100855.56
2023-08-14T15:17:51.674Z,100860.53
2023-08-14T15:20:19.089Z,100868.53
2023-08-14T15:22:48.241Z,100863.00
2023-08-14T15:25:15.432Z,100861.09
2023-08-14T15:27:45.154Z,100863.00
2023-08-14T15:30:25.067Z,100858.06
2023-08-14T15:32:54.362Z,100868.81
2023-08-14T15:35:22.146Z,100858.91
2023-08-14T15:37:58.646Z,100858.88
2023-08-14T15:40:31.736Z,100857.53
2023-08-14T15:43:04.426Z,100860.53
2023-08-14T15:45:35.680Z,100853.13
2023-08-14T15:48:03.156Z,100861.09
2023-08-14T15:50:30.149Z,100861.63
2023-08-14T15:52:58.931Z,100852.84
2023-08-14T15:55:26.138Z,100852.56
2023-08-14T15:57:57.019Z,100848.13
2023-08-14T16:00:30.918Z,100850.78
2023-08-14T16:02:58.395Z,100851.44
2023-08-14T16:05:28.404Z,100851.06
2023-08-14T16:07:57.918Z,100853.91
2023-08-14T16:10:24.840Z,100850.50
2023-08-14T16:12:52.543Z,100862.25
2023-08-14T16:15:19.426Z,100855.88
2023-08-14T16:17:46.818Z,100864.66
2023-08-14T16:20:14.063Z,100855.50
2023-08-14T16:22:47.292Z,100859.84
2023-08-14T16:25:23.321Z,100860.81
2023-08-14T16:27:50.500Z,100861.53
2023-08-14T16:30:23.240Z,100858.34
2023-08-14T16:32:53.222Z,100867.66
2023-08-14T16:35:27.412Z,100860.00
2023-08-14T16:37:57.008Z,100855.84
2023-08-14T16:40:25.623Z,100868.47
2023-08-14T16:42:55.952Z,100863.50
2023-08-14T16:45:25.765Z,100868.16
2023-08-14T16:47:55.794Z,100861.53
2023-08-14T16:50:22.782Z,100861.72
2023-08-14T16:52:50.263Z,100866.34
2023-08-14T16:55:17.782Z,100859.97
2023-08-14T16:57:47.960Z,100872.59
2023-08-14T17:00:25.590Z,100866.78
2023-08-14T17:02:58.067Z,100871.34
2023-08-14T17:05:25.260Z,100869.13
2023-08-14T17:07:54.775Z,100868.78
2023-08-14T17:10:21.808Z,100853.63
2023-08-14T17:12:56.473Z,100866.81
2023-08-14T17:15:23.638Z,100866.44
2023-08-14T17:17:51.329Z,100864.19
2023-08-14T17:20:27.060Z,100873.72
2023-08-14T17:23:04.637Z,100867.03
2023-08-14T17:25:32.865Z,100879.59
2023-08-14T17:28:10.211Z,100879.84
2023-08-14T17:30:38.407Z,100877.03
2023-08-14T17:33:08.909Z,100873.41
2023-08-14T17:35:39.667Z,100886.53
2023-08-14T17:38:06.903Z,100889.50
2023-08-14T17:40:33.916Z,100879.81
2023-08-14T17:43:06.286Z,100884.44
2023-08-14T17:45:42.882Z,100892.84
2023-08-14T17:48:15.190Z,100891.91
2023-08-14T17:50:50.058Z,100888.53
2023-08-14T17:53:17.510Z,100891.72
2023-08-14T17:55:44.658Z,100895.47
2023-08-14T17:58:17.499Z,100890.44
2023-08-14T18:00:47.769Z,100890.38
2023-08-14T18:03:15.549Z,100899.28
2023-08-14T18:05:53.605Z,100896.38
2023-08-14T18:08:43.163Z,100808.38
2023-08-14T18:11:12.068Z,100902.50
2023-08-14T18:13:44.083Z,100921.06
2023-08-14T18:16:11.253Z,100914.94
2023-08-14T18:18:42.967Z,100906.28
2023-08-14T18:21:10.003Z,100912.47
2023-08-14T18:23:37.532Z,100908.75
2023-08-14T18:26:07.090Z,100919.13
2023-08-14T18:28:34.371Z,100915.72
2023-08-14T18:31:02.921Z,100918.94
2023-08-14T18:33:33.502Z,100925.97
2023-08-14T18:36:00.508Z,100924.81
2023-08-14T18:38:28.200Z,100923.41
2023-08-14T18:40:58.041Z,100919.75
2023-08-14T18:43:29.319Z,100904.75
2023-08-14T18:45:57.705Z,100932.19
2023-08-14T18:48:26.382Z,100930.44
2023-08-14T18:50:55.893Z,100933.16
2023-08-14T18:53:26.869Z,100934.72
2023-08-14T18:55:58.965Z,100943.66
2023-08-14T18:58:26.394Z,100919.94
2023-08-14T19:00:53.467Z,100927.69
2023-08-14T19:03:20.854Z,100929.50
2023-08-14T19:05:55.636Z,100930.81
2023-08-14T19:08:26.452Z,100939.16
2023-08-14T19:10:53.462Z,100938.72
2023-08-14T19:13:20.876Z,100937.53
2023-08-14T19:15:51.232Z,100937.19
2023-08-14T19:18:18.656Z,100937.91
2023-08-14T19:20:46.435Z,100943.03
2023-08-14T19:23:15.307Z,100940.53
2023-08-14T19:25:42.283Z,100953.38
2023-08-14T19:28:21.710Z,100943.50
2023-08-14T19:31:01.602Z,100947.56
2023-08-14T19:33:29.132Z,100958.16
2023-08-14T19:35:59.550Z,100948.53
2023-08-14T19:38:28.200Z,100959.91
2023-08-14T19:40:59.650Z,100951.00
2023-08-14T19:43:27.103Z,100952.31
2023-08-14T19:45:54.391Z,100955.25
2023-08-14T19:48:21.743Z,100946.63
2023-08-14T19:50:48.750Z,100961.94
2023-08-14T19:53:16.538Z,100963.47
2023-08-14T19:55:44.934Z,100965.03
2023-08-14T19:58:14.393Z,100961.69
2023-08-14T20:00:41.377Z,100961.97
2023-08-14T20:03:09.025Z,100956.59
2023-08-14T20:05:36.441Z,100959.34
2023-08-14T20:08:05.511Z,100957.31
2023-08-14T20:10:37.648Z,100965.75
2023-08-14T20:13:08.725Z,100955.41
2023-08-14T20:15:46.280Z,100967.41
2023-08-14T20:18:14.492Z,100966.47
2023-08-14T20:20:43.026Z,100967.97
2023-08-14T20:23:11.277Z,100973.91
2023-08-14T20:25:43.194Z,100973.53
2023-08-14T20:28:14.112Z,100955.25
2023-08-14T20:30:49.723Z,100965.94
2023-08-14T20:33:17.181Z,100950.00
2023-08-14T20:35:45.732Z,100973.84
2023-08-14T20:38:13.674Z,100965.03
2023-08-14T20:40:43.679Z,100972.03
2023-08-14T20:43:14.027Z,100968.94
2023-08-14T20:45:41.395Z,100971.88
2023-08-14T20:48:09.264Z,100977.81
2023-08-14T20:50:36.884Z,100978.84
2023-08-14T20:53:06.859Z,100980.19
2023-08-14T20:55:34.479Z,100979.16
2023-08-14T20:58:01.772Z,100986.53
2023-08-14T21:00:30.191Z,100981.53
2023-08-14T21:03:00.145Z,100978.44
2023-08-14T21:05:30.442Z,100936.72
2023-08-14T21:07:59.088Z,100973.63
2023-08-14T21:10:26.219Z,100975.75
2023-08-14T21:12:53.413Z,100973.94
2023-08-14T21:15:23.562Z,100977.13
2023-08-14T21:17:52.269Z,100974.03
2023-08-14T21:20:22.374Z,100981.25
2023-08-14T21:22:50.007Z,100975.53
2023-08-14T21:25:17.109Z,100984.16
2023-08-14T21:27:47.769Z,100984.84
2023-08-14T21:30:14.804Z,100992.03
2023-08-14T21:32:42.055Z,100988.53
2023-08-14T21:35:12.664Z,100989.50
2023-08-14T21:37:43.677Z,100988.66
2023-08-14T21:40:11.226Z,100988.97
2023-08-14T21:42:38.581Z,100993.81
2023-08-14T21:45:07.406Z,100986.16
2023-08-14T21:47:34.870Z,100990.16
2023-08-14T21:50:01.806Z,100990.16
2023-08-14T21:52:31.474Z,100993.47
2023-08-14T21:55:01.162Z,100993.69
2023-08-14T21:57:28.538Z,100992.03
2023-08-14T21:59:55.565Z,100990.97
2023-08-14T22:02:22.995Z,100986.78
2023-08-14T22:04:50.455Z,100989.13
2023-08-14T22:07:18.016Z,100991.91
2023-08-14T22:09:46.567Z,100990.94
2023-08-14T22:12:13.975Z,100986.38
2023-08-14T22:14:40.951Z,100979.88
2023-08-14T22:17:09.614Z,100976.31
2023-08-14T22:19:39.434Z,100983.00
2023-08-14T22:22:13.888Z,100975.09
2023-08-14T22:24:41.963Z,100974.94
2023-08-14T22:27:18.382Z,100973.47
2023-08-14T22:29:45.711Z,100975.34
2023-08-14T22:32:15.170Z,100967.84
2023-08-14T22:34:42.473Z,100969.34
2023-08-14T22:37:10.029Z,100961.66
2023-08-14T22:39:37.075Z,100971.09
2023-08-14T22:42:10.341Z,100970.53
2023-08-14T22:44:41.623Z,100972.06
2023-08-14T22:47:08.867Z,100980.00
2023-08-14T22:49:35.795Z,100967.75
2023-08-14T22:52:03.389Z,100978.22
2023-08-14T22:54:31.439Z,100971.72
2023-08-14T22:56:58.658Z,100970.91
2023-08-14T22:59:25.685Z,100972.56
2023-08-14T23:01:54.322Z,100970.25
2023-08-14T23:04:21.540Z,100971.47
2023-08-14T23:06:48.909Z,100966.88
2023-08-14T23:09:15.866Z,100961.47
2023-08-14T23:11:43.124Z,100959.59
2023-08-14T23:14:10.242Z,100969.81
2023-08-14T23:16:37.525Z,100970.06
2023-08-14T23:19:06.268Z,100969.84
2023-08-14T23:21:33.727Z,100969.03
2023-08-14T23:24:00.705Z,100973.00
2023-08-14T23:26:28.129Z,100970.31
2023-08-14T23:28:55.124Z,100969.72
2023-08-14T23:31:22.399Z,100976.84
2023-08-14T23:33:49.446Z,100971.25
2023-08-14T23:36:18.075Z,100965.41
2023-08-14T23:38:45.796Z,100973.38
2023-08-14T23:41:13.151Z,100971.50
2023-08-14T23:43:40.353Z,100964.19
2023-08-14T23:46:07.642Z,100957.13
2023-08-14T23:48:34.501Z,100963.59
2023-08-14T23:51:01.752Z,100961.09
2023-08-14T23:53:30.031Z,100955.88
2023-08-14T23:55:57.065Z,100961.50
2023-08-14T23:58:24.044Z,100960.88
